Central Oregon RPC :: JUNTURA, OR

liberation: 2021-10-09  07:30     latitude: 43.744233     longitude: -118.077333 110 birds
# LOFT PRING MILES ARRIVAL SPEED ToWin
1 RUETER FAMILY LOFT AU21-CORP-915 159.534 2021-10-09 10:53:37.502 1378.904 00:00:00
2 RUETER FAMILY LOFT AU21-CORP-891 159.534 2021-10-09 10:54:02.644 1376.072 00:00:25
3 RUETER FAMILY LOFT AU21-CORP-824 159.534 2021-10-09 10:54:03.219 1376.007 00:00:26
4 RUETER FAMILY LOFT AU21-CORP-836 159.534 2021-10-09 10:54:13.260 1374.880 00:00:36
5 RUETER FAMILY LOFT AU21-CORP-839 159.534 2021-10-09 10:54:14.551 1374.735 00:00:37
6 RUETER FAMILY LOFT AU21-CORP-919 159.534 2021-10-09 10:54:16.947 1374.466 00:00:39
7 RUETER FAMILY LOFT AU21-CORP-828 159.534 2021-10-09 10:54:26.149 1373.435 00:00:49
8 RUETER FAMILY LOFT AU21-CORP-822 159.534 2021-10-09 10:54:45.037 1371.324 00:01:08
9 ROCKY TOP AU21-ARPU-11206 152.796 2021-10-09 10:53:44.964 1319.865 00:08:43
10 ROCKY TOP AU21-CORP-0765 152.796 2021-10-09 10:54:07.515 1317.435 00:09:06
11 ROCKY TOP AU21-CORP-0746 152.796 2021-10-09 10:54:09.140 1317.260 00:09:08
12 RUETER FAMILY LOFT AU21-CORP-888 159.534 2021-10-09 11:03:38.081 1314.297 00:10:01
13 whistling wings AU21-CORP-0253 161.025 2021-10-09 11:08:25.933 1297.443 00:12:54
14 whistling wings AU21-CORP-0767 161.025 2021-10-09 11:08:26.811 1297.356 00:12:55
15 whistling wings AU21-CORP-0938 161.025 2021-10-09 11:08:29.920 1297.048 00:12:58
16 whistling wings AU21-CORP-1102 161.025 2021-10-09 11:08:58.511 1294.226 00:13:27
17 whistling wings AU21-CORP-0781 161.025 2021-10-09 11:08:59.108 1294.167 00:13:27
18 whistling wings AU21-CORP-0928 161.025 2021-10-09 11:09:23.399 1291.779 00:13:52
19 whistling wings AU21-CORP-0939 161.025 2021-10-09 11:09:38.825 1290.267 00:14:07
20 RUETER FAMILY LOFT AU21-CORP-850 159.534 2021-10-09 11:12:05.446 1264.255 00:18:28
21 RUETER FAMILY LOFT AU21-CORP-881 159.534 2021-10-09 11:12:22.327 1262.655 00:18:45
22 RUETER FAMILY LOFT AU21-CORP-985 159.534 2021-10-09 11:12:25.263 1262.378 00:18:48
23 RUETER FAMILY LOFT AU21-CORP-884 159.534 2021-10-09 11:12:26.332 1262.276 00:18:49
24 RUETER FAMILY LOFT AU21-CORP-986 159.534 2021-10-09 11:12:56.391 1259.440 00:19:19
25 ROCKY TOP AU21-CORP-0751 152.796 2021-10-09 11:03:43.791 1258.232 00:18:42
26 RUETER FAMILY LOFT AU21-CORP-815 159.534 2021-10-09 11:13:15.125 1257.678 00:19:38
27 ROCKY TOP AU21-CORP-0709 152.796 2021-10-09 11:03:51.256 1257.500 00:18:50
28 ROCKY TOP AU21-JEDD-11824 152.796 2021-10-09 11:03:53.233 1257.306 00:18:52
29 ROCKY TOP AU21-PNW-3505 152.796 2021-10-09 11:04:16.359 1255.045 00:19:15
30 RUETER FAMILY LOFT AU21-CORP-920 159.534 2021-10-09 11:13:58.119 1253.655 00:20:21
31 RUETER FAMILY LOFT AU21-CORP-942 159.534 2021-10-09 11:16:06.545 1241.787 00:22:29
32 RUETER FAMILY LOFT AU21-CORP-895 159.534 2021-10-09 11:16:28.489 1239.782 00:22:51
33 RUETER FAMILY LOFT AU21-CORP-817 159.534 2021-10-09 11:16:33.448 1239.329 00:22:56
34 RUETER FAMILY LOFT AU21-CORP-892 159.534 2021-10-09 11:16:37.989 1238.916 00:23:00
35 RUETER FAMILY LOFT AU21-CORP-860 159.534 2021-10-09 11:16:38.848 1238.837 00:23:01
36 RUETER FAMILY LOFT AU21-CORP-940 159.534 2021-10-09 11:16:53.570 1237.498 00:23:16
37 RUETER FAMILY LOFT AU21-CORP-861 159.534 2021-10-09 11:17:14.499 1235.598 00:23:37
38 RUETER FAMILY LOFT AU21-CORP-812 159.534 2021-10-09 11:17:18.160 1235.266 00:23:41
39 LAYPORT LOFT AU21-CORP-0685 157.913 2021-10-09 11:15:42.211 1231.378 00:24:09
40 LAYPORT LOFT AU21-CORP-0637 157.913 2021-10-09 11:17:05.907 1223.815 00:25:33
41 LAYPORT LOFT AU21-CORP-0690 157.913 2021-10-09 11:17:12.656 1223.209 00:25:39
42 LUCAS CRAMER AU21-CORP-464 161.193 2021-10-09 11:21:56.693 1223.132 00:26:12
43 LAYPORT LOFT AU21-CORP-0675 157.913 2021-10-09 11:17:23.847 1222.206 00:25:50
44 LAYPORT LOFT AU21-CORP-0632 157.913 2021-10-09 11:17:24.878 1222.113 00:25:52
45 LAYPORT LOFT AU21-CORP-0648 157.913 2021-10-09 11:18:59.955 1213.657 00:27:27
46 LAYPORT LOFT AU21-CORP-0641 157.913 2021-10-09 11:19:02.425 1213.438 00:27:29
47 LAYPORT LOFT AU21-CORP-0689 157.913 2021-10-09 11:20:00.045 1208.372 00:28:27
48 LUCAS CRAMER AU21-CORP-408 161.193 2021-10-09 11:26:15.602 1200.792 00:30:31
49 RUETER FAMILY LOFT AU21-CORP-819 159.534 2021-10-09 11:26:16.689 1188.342 00:32:39
50 RUETER FAMILY LOFT AU21-CORP-887 159.534 2021-10-09 11:26:25.143 1187.634 00:32:48
51 LUCAS CRAMER AU21-CORP-461 161.193 2021-10-09 11:36:03.273 1152.993 00:40:19
52 LUCAS CRAMER AU21-CORP-465 161.193 2021-10-09 11:36:13.956 1152.159 00:40:29
53 whistling wings AU21-CORP-1101 161.025 2021-10-09 11:37:18.121 1145.981 00:41:46
54 RUETER FAMILY LOFT AU21-CORP-807 159.534 2021-10-09 11:39:06.202 1127.160 00:45:29
55 RUETER FAMILY LOFT AU21-CORP-1214 159.534 2021-10-09 11:40:14.350 1122.044 00:46:37
56 LUCAS CRAMER AU21-CORP-444 161.193 2021-10-09 11:42:55.991 1121.637 00:47:11
57 LUCAS CRAMER AU21-CORP-453 161.193 2021-10-09 11:43:05.903 1120.904 00:47:21
58 RUETER FAMILY LOFT AU21-CORP-987 159.534 2021-10-09 11:40:53.016 1119.162 00:47:16
59 whistling wings AU21-CORP-0766 161.025 2021-10-09 11:45:41.009 1108.415 00:50:09
60 RUETER FAMILY LOFT AU21-CORP-809 159.534 2021-10-09 11:43:53.211 1105.923 00:50:16
61 RUETER FAMILY LOFT AU21-CORP-949 159.534 2021-10-09 11:52:39.538 1068.988 00:59:02
62 RUETER FAMILY LOFT AU21-CORP-868 159.534 2021-10-09 11:54:32.388 1061.388 01:00:55
63 whistling wings AU21-CORP-0941 161.025 2021-10-09 11:59:12.292 1052.742 01:03:41
64 whistling wings AU21-CORP-0946 161.025 2021-10-09 11:59:40.498 1050.907 01:04:09
65 ROCKY TOP AU21-CORP-0763 152.796 2021-10-09 11:46:25.108 1048.761 01:01:24
66 LAYPORT LOFT AU21-CORP-0184 157.913 2021-10-09 11:57:05.649 1040.556 01:05:32
67 whistling wings AU21-CORP-0254 161.025 2021-10-09 12:23:58.487 964.040 01:28:27
68 STEELE LOFT AU21-CORP-0162 162.06 2021-10-09 12:27:24.358 959.044 01:30:33
69 LUCAS CRAMER AU21-CORP-459 161.193 2021-10-09 12:33:50.337 933.715 01:38:06
70 TOPIGEONUSA AU21-MDC-1219 161.026 2021-10-09 12:36:22.769 925.015 01:40:51
71 STEELE LOFT AU21-CORP-0120 162.06 2021-10-09 13:05:43.412 849.585 02:08:52
72 TOPIGEONUSA AU21-CORP-0697 161.026 2021-10-09 13:18:40.477 812.809 02:23:09
73 whistling wings AU21-CORP-0265 161.025 2021-10-09 13:27:06.292 793.614 02:31:35
74 STEELE LOFT AU21-BORD-21047 162.06 2021-10-09 13:44:57.241 760.695 02:48:06
75 LAYPORT LOFT AU21-CORP-1004 157.913 2021-10-09 13:46:00.324 739.155 02:54:27
76 LUCAS CRAMER AU21-CORP-466 161.193 2021-10-09 14:07:16.006 714.127 03:11:31
77 STEELE LOFT AU21-JEDD-11904 162.06 2021-10-09 14:18:44.074 697.826 03:21:53
78 STEELE LOFT AU21-CORP-0109 162.06 2021-10-09 14:20:03.295 695.579 03:23:12
79 LAYPORT LOFT AU21-CORP-0691 157.913 2021-10-09 14:14:29.370 687.104 03:22:56
80 STEELE LOFT AU21-CORP-0128 162.06 2021-10-09 14:35:27.511 670.396 03:38:37
81 STEELE LOFT AU21-BORD-21056 162.06 2021-10-09 14:35:28.841 670.361 03:38:38
82 LAYPORT LOFT AU21-CORP-0688 157.913 2021-10-09 14:43:40.211 640.871 03:52:07
83 STEELE LOFT AU21-CORP-0116 162.06 2021-10-09 15:13:55.509 614.809 04:17:05
84 RUETER FAMILY LOFT AU21-CORP-1204 159.534 2021-10-09 15:45:28.719 566.683 04:51:51
85 ROCKY TOP AU21-CORP-0744 152.796 2021-10-09 15:31:08.639 558.921 04:46:07
86 LAYPORT LOFT AU21-CORP-0678 157.913 2021-10-09 15:54:40.517 550.703 05:03:07
87 ROCKY TOP AU21-CORP-0749 152.796 2021-10-09 16:02:43.986 524.487 05:17:42
88 LAYPORT LOFT AU21-CORP-0629 157.913 2021-10-09 17:17:46.590 472.844 06:26:13
89 ROCKY TOP AU21-CORP-0756 152.796 2021-10-09 17:17:21.726 457.847 06:32:20
90 ROCKY TOP AU21-CORP-0768 152.796 2021-10-09 18:35:56.021 403.827 07:50:54
91 ROCKY TOP AU21-CORP-0711 152.796 2021-10-10 06:55:34.061 382.443 08:28:09
92 TOPIGEONUSA AU21-JEDD-11820 161.026 2021-10-10 08:37:34.663 351.979 09:59:39
93 STEELE LOFT AU21-CORP-0182 162.06 2021-10-10 09:40:07.415 328.706 11:00:52
94 STEELE LOFT AU21-CORP-0121 162.06 2021-10-10 10:49:09.911 304.479 12:09:55
LAYPORT LOFT AU21-CORP-0630 0 0000-00-00 00:00:00.000 0.000 00:00:00
LAYPORT LOFT AU21-CORP-0635 0 0000-00-00 00:00:00.000 0.000 00:00:00
LAYPORT LOFT AU21-CORP-0638 0 0000-00-00 00:00:00.000 0.000 00:00:00
LAYPORT LOFT AU21-CORP-0639 0 0000-00-00 00:00:00.000 0.000 00:00:00
LAYPORT LOFT AU21-CORP-0677 0 0000-00-00 00:00:00.000 0.000 00:00:00
LUCAS CRAMER AU21-CORP-435 0 0000-00-00 00:00:00.000 0.000 00:00:00
ROCKY TOP AU21-ARPU-11217 0 0000-00-00 00:00:00.000 0.000 00:00:00
ROCKY TOP AU21-CORP-0714 0 0000-00-00 00:00:00.000 0.000 00:00:00
ROCKY TOP AU21-CORP-0725 0 0000-00-00 00:00:00.000 0.000 00:00:00
ROCKY TOP AU21-CORP-0726 0 0000-00-00 00:00:00.000 0.000 00:00:00
ROCKY TOP AU21-CORP-0757 0 0000-00-00 00:00:00.000 0.000 00:00:00
ROCKY TOP AU21-CORP-0778 0 0000-00-00 00:00:00.000 0.000 00:00:00
ROCKY TOP AU21-CORP-0779 0 0000-00-00 00:00:00.000 0.000 00:00:00
RUETER FAMILY LOFT AU21-CORP-1203 0 0000-00-00 00:00:00.000 0.000 00:00:00
RUETER FAMILY LOFT AU21-CORP-976 0 0000-00-00 00:00:00.000 0.000 00:00:00
STEELE LOFT AU21-CORP-0169 0 0000-00-00 00:00:00.000 0.000 00:00:00